sensor_id;sensor_type;location;lat;lon;timestamp;temperature;humidity
37410;DHT22;23275;48.914;12.566;2023-05-07T00:01:26;12.00;99.90
37410;DHT22;23275;48.914;12.566;2023-05-07T00:03:51;12.00;99.90
37410;DHT22;23275;48.914;12.566;2023-05-07T00:06:17;12.00;99.90
37410;DHT22;23275;48.914;12.566;2023-05-07T00:08:42;12.00;99.90
37410;DHT22;23275;48.914;12.566;2023-05-07T00:11:07;12.00;99.90
37410;DHT22;23275;48.914;12.566;2023-05-07T00:13:33;12.00;99.90
37410;DHT22;23275;48.914;12.566;2023-05-07T00:16:01;12.00;99.90
37410;DHT22;23275;48.914;12.566;2023-05-07T00:18:27;12.00;99.90
37410;DHT22;23275;48.914;12.566;2023-05-07T00:20:52;12.00;99.90
37410;DHT22;23275;48.914;12.566;2023-05-07T00:23:17;11.90;99.90
37410;DHT22;23275;48.914;12.566;2023-05-07T00:25:43;11.90;99.90
37410;DHT22;23275;48.914;12.566;2023-05-07T00:28:08;11.90;99.90
37410;DHT22;23275;48.914;12.566;2023-05-07T00:30:34;11.90;99.90
37410;DHT22;23275;48.914;12.566;2023-05-07T00:33:00;11.90;99.90
37410;DHT22;23275;48.914;12.566;2023-05-07T00:35:25;11.80;99.90
37410;DHT22;23275;48.914;12.566;2023-05-07T00:37:51;11.80;99.90
37410;DHT22;23275;48.914;12.566;2023-05-07T00:40:16;11.70;99.90
37410;DHT22;23275;48.914;12.566;2023-05-07T00:42:41;11.70;99.90
37410;DHT22;23275;48.914;12.566;2023-05-07T00:45:13;11.70;99.90
37410;DHT22;23275;48.914;12.566;2023-05-07T00:47:38;11.70;99.90
37410;DHT22;23275;48.914;12.566;2023-05-07T00:50:04;11.70;99.90
37410;DHT22;23275;48.914;12.566;2023-05-07T00:52:30;11.70;99.90
37410;DHT22;23275;48.914;12.566;2023-05-07T00:54:56;11.70;99.90
37410;DHT22;23275;48.914;12.566;2023-05-07T00:57:22;11.70;99.90
37410;DHT22;23275;48.914;12.566;2023-05-07T00:59:49;11.60;99.90
37410;DHT22;23275;48.914;12.566;2023-05-07T01:02:16;11.60;99.90
37410;DHT22;23275;48.914;12.566;2023-05-07T01:04:42;11.60;99.90
37410;DHT22;23275;48.914;12.566;2023-05-07T01:07:07;11.50;99.90
37410;DHT22;23275;48.914;12.566;2023-05-07T01:09:33;11.50;99.90
37410;DHT22;23275;48.914;12.566;2023-05-07T01:12:00;11.40;99.90
37410;DHT22;23275;48.914;12.566;2023-05-07T01:14:26;11.40;99.90
37410;DHT22;23275;48.914;12.566;2023-05-07T01:16:52;11.40;99.90
37410;DHT22;23275;48.914;12.566;2023-05-07T01:19:18;11.40;99.90
37410;DHT22;23275;48.914;12.566;2023-05-07T01:21:45;11.40;99.90
37410;DHT22;23275;48.914;12.566;2023-05-07T01:24:11;11.40;99.90
37410;DHT22;23275;48.914;12.566;2023-05-07T01:26:38;11.30;99.90
37410;DHT22;23275;48.914;12.566;2023-05-07T01:29:03;11.30;99.90
37410;DHT22;23275;48.914;12.566;2023-05-07T01:31:28;11.30;99.90
37410;DHT22;23275;48.914;12.566;2023-05-07T01:33:54;11.30;99.90
37410;DHT22;23275;48.914;12.566;2023-05-07T01:36:21;11.20;99.90
37410;DHT22;23275;48.914;12.566;2023-05-07T01:38:49;11.20;99.90
37410;DHT22;23275;48.914;12.566;2023-05-07T01:41:15;11.10;99.90
37410;DHT22;23275;48.914;12.566;2023-05-07T01:43:40;11.10;99.90
37410;DHT22;23275;48.914;12.566;2023-05-07T01:46:06;11.10;99.90
37410;DHT22;23275;48.914;12.566;2023-05-07T01:48:32;11.10;99.90
37410;DHT22;23275;48.914;12.566;2023-05-07T01:50:58;11.10;99.90
37410;DHT22;23275;48.914;12.566;2023-05-07T01:53:26;11.00;99.90
37410;DHT22;23275;48.914;12.566;2023-05-07T01:55:52;11.00;99.90
37410;DHT22;23275;48.914;12.566;2023-05-07T01:58:17;11.00;99.90
37410;DHT22;23275;48.914;12.566;2023-05-07T02:00:43;11.00;99.90
37410;DHT22;23275;48.914;12.566;2023-05-07T02:03:08;11.00;99.90
37410;DHT22;23275;48.914;12.566;2023-05-07T02:05:34;11.10;99.90
37410;DHT22;23275;48.914;12.566;2023-05-07T02:08:00;11.00;99.90
37410;DHT22;23275;48.914;12.566;2023-05-07T02:10:25;11.10;99.90
37410;DHT22;23275;48.914;12.566;2023-05-07T02:12:51;11.10;99.90
37410;DHT22;23275;48.914;12.566;2023-05-07T02:15:16;11.20;99.90
37410;DHT22;23275;48.914;12.566;2023-05-07T02:20:26;11.20;99.90
37410;DHT22;23275;48.914;12.566;2023-05-07T02:22:51;11.30;99.90
37410;DHT22;23275;48.914;12.566;2023-05-07T02:25:17;11.30;99.90
37410;DHT22;23275;48.914;12.566;2023-05-07T02:27:42;11.30;99.90
37410;DHT22;23275;48.914;12.566;2023-05-07T02:30:07;11.30;99.90
37410;DHT22;23275;48.914;12.566;2023-05-07T02:32:33;11.30;99.90
37410;DHT22;23275;48.914;12.566;2023-05-07T02:34:58;11.30;99.90
37410;DHT22;23275;48.914;12.566;2023-05-07T02:37:24;11.30;99.90
37410;DHT22;23275;48.914;12.566;2023-05-07T02:39:50;11.30;99.90
37410;DHT22;23275;48.914;12.566;2023-05-07T02:42:15;11.30;99.90
37410;DHT22;23275;48.914;12.566;2023-05-07T02:44:41;11.20;99.90
37410;DHT22;23275;48.914;12.566;2023-05-07T02:47:06;11.20;99.90
37410;DHT22;23275;48.914;12.566;2023-05-07T02:49:33;11.20;99.90
37410;DHT22;23275;48.914;12.566;2023-05-07T02:51:59;11.20;99.90
37410;DHT22;23275;48.914;12.566;2023-05-07T02:54:24;11.30;99.90
37410;DHT22;23275;48.914;12.566;2023-05-07T02:56:50;11.30;99.90
37410;DHT22;23275;48.914;12.566;2023-05-07T02:59:15;11.20;99.90
37410;DHT22;23275;48.914;12.566;2023-05-07T03:01:41;11.20;99.90
37410;DHT22;23275;48.914;12.566;2023-05-07T03:04:09;11.10;99.90
37410;DHT22;23275;48.914;12.566;2023-05-07T03:06:35;11.00;99.90
37410;DHT22;23275;48.914;12.566;2023-05-07T03:09:00;11.00;99.90
37410;DHT22;23275;48.914;12.566;2023-05-07T03:11:25;10.90;99.90
37410;DHT22;23275;48.914;12.566;2023-05-07T03:13:51;10.80;99.90
37410;DHT22;23275;48.914;12.566;2023-05-07T03:16:17;10.80;99.90
37410;DHT22;23275;48.914;12.566;2023-05-07T03:18:42;10.80;99.90
37410;DHT22;23275;48.914;12.566;2023-05-07T03:21:08;10.80;99.90
37410;DHT22;23275;48.914;12.566;2023-05-07T03:23:34;10.70;99.90
37410;DHT22;23275;48.914;12.566;2023-05-07T03:25:59;10.70;99.90
37410;DHT22;23275;48.914;12.566;2023-05-07T03:28:25;10.80;99.90
37410;DHT22;23275;48.914;12.566;2023-05-07T03:30:50;10.80;99.90
37410;DHT22;23275;48.914;12.566;2023-05-07T03:33:16;10.80;99.90
37410;DHT22;23275;48.914;12.566;2023-05-07T03:35:41;10.80;99.90
37410;DHT22;23275;48.914;12.566;2023-05-07T03:38:07;10.80;99.90
37410;DHT22;23275;48.914;12.566;2023-05-07T03:40:32;10.80;99.90
37410;DHT22;23275;48.914;12.566;2023-05-07T03:42:59;10.80;99.90
37410;DHT22;23275;48.914;12.566;2023-05-07T03:45:24;10.70;99.90
37410;DHT22;23275;48.914;12.566;2023-05-07T03:47:50;10.70;99.90
37410;DHT22;23275;48.914;12.566;2023-05-07T03:50:15;10.70;99.90
37410;DHT22;23275;48.914;12.566;2023-05-07T03:52:41;10.70;99.90
37410;DHT22;23275;48.914;12.566;2023-05-07T03:55:06;10.80;99.90
37410;DHT22;23275;48.914;12.566;2023-05-07T03:57:32;10.80;99.90
37410;DHT22;23275;48.914;12.566;2023-05-07T03:59:58;10.90;99.90
37410;DHT22;23275;48.914;12.566;2023-05-07T04:02:23;10.90;99.90
37410;DHT22;23275;48.914;12.566;2023-05-07T04:04:49;11.00;99.90
37410;DHT22;23275;48.914;12.566;2023-05-07T04:07:15;11.00;99.90
37410;DHT22;23275;48.914;12.566;2023-05-07T04:09:40;11.00;99.90
37410;DHT22;23275;48.914;12.566;2023-05-07T04:12:05;11.00;99.90
37410;DHT22;23275;48.914;12.566;2023-05-07T04:14:31;11.00;99.90
37410;DHT22;23275;48.914;12.566;2023-05-07T04:16:58;11.10;99.90
37410;DHT22;23275;48.914;12.566;2023-05-07T04:19:23;11.10;99.90
37410;DHT22;23275;48.914;12.566;2023-05-07T04:21:49;11.00;99.90
37410;DHT22;23275;48.914;12.566;2023-05-07T04:24:14;11.00;99.90
37410;DHT22;23275;48.914;12.566;2023-05-07T04:26:40;11.00;99.90
37410;DHT22;23275;48.914;12.566;2023-05-07T04:29:05;11.00;99.90
37410;DHT22;23275;48.914;12.566;2023-05-07T04:31:31;11.00;99.90
37410;DHT22;23275;48.914;12.566;2023-05-07T04:33:57;11.00;99.90
37410;DHT22;23275;48.914;12.566;2023-05-07T04:36:22;11.10;99.90
37410;DHT22;23275;48.914;12.566;2023-05-07T04:38:48;11.10;99.90
37410;DHT22;23275;48.914;12.566;2023-05-07T04:41:13;11.20;99.90
37410;DHT22;23275;48.914;12.566;2023-05-07T04:43:39;11.30;99.90
37410;DHT22;23275;48.914;12.566;2023-05-07T04:46:05;11.40;99.90
37410;DHT22;23275;48.914;12.566;2023-05-07T04:48:30;11.50;99.90
37410;DHT22;23275;48.914;12.566;2023-05-07T04:50:56;11.60;99.90
37410;DHT22;23275;48.914;12.566;2023-05-07T04:53:21;11.60;99.90
37410;DHT22;23275;48.914;12.566;2023-05-07T04:55:47;11.80;99.90
37410;DHT22;23275;48.914;12.566;2023-05-07T04:58:13;11.90;99.90
37410;DHT22;23275;48.914;12.566;2023-05-07T05:00:38;12.10;99.90
37410;DHT22;23275;48.914;12.566;2023-05-07T05:03:04;12.30;99.90
37410;DHT22;23275;48.914;12.566;2023-05-07T05:05:30;12.50;99.90
37410;DHT22;23275;48.914;12.566;2023-05-07T05:07:56;12.80;99.90
37410;DHT22;23275;48.914;12.566;2023-05-07T05:10:21;13.10;99.90
37410;DHT22;23275;48.914;12.566;2023-05-07T05:12:47;13.30;99.90
37410;DHT22;23275;48.914;12.566;2023-05-07T05:15:12;13.60;99.90
37410;DHT22;23275;48.914;12.566;2023-05-07T05:17:38;13.90;99.90
37410;DHT22;23275;48.914;12.566;2023-05-07T05:20:04;14.30;99.90
37410;DHT22;23275;48.914;12.566;2023-05-07T05:22:30;14.50;99.90
37410;DHT22;23275;48.914;12.566;2023-05-07T05:24:56;14.80;99.90
37410;DHT22;23275;48.914;12.566;2023-05-07T05:27:22;15.10;99.90
37410;DHT22;23275;48.914;12.566;2023-05-07T05:29:48;15.20;99.90
37410;DHT22;23275;48.914;12.566;2023-05-07T05:32:13;15.30;99.90
37410;DHT22;23275;48.914;12.566;2023-05-07T05:34:39;15.50;99.90
37410;DHT22;23275;48.914;12.566;2023-05-07T05:37:04;15.60;99.90
37410;DHT22;23275;48.914;12.566;2023-05-07T05:39:30;15.50;99.90
37410;DHT22;23275;48.914;12.566;2023-05-07T05:41:55;15.60;99.90
37410;DHT22;23275;48.914;12.566;2023-05-07T05:44:21;15.80;99.90
37410;DHT22;23275;48.914;12.566;2023-05-07T05:46:46;16.00;99.90
37410;DHT22;23275;48.914;12.566;2023-05-07T05:49:12;16.10;99.90
37410;DHT22;23275;48.914;12.566;2023-05-07T05:51:38;16.10;99.90
37410;DHT22;23275;48.914;12.566;2023-05-07T05:54:03;16.10;99.90
37410;DHT22;23275;48.914;12.566;2023-05-07T05:56:29;16.10;99.90
37410;DHT22;23275;48.914;12.566;2023-05-07T05:58:55;16.00;99.90
37410;DHT22;23275;48.914;12.566;2023-05-07T06:01:20;16.20;99.90
37410;DHT22;23275;48.914;12.566;2023-05-07T06:03:46;16.50;99.90
37410;DHT22;23275;48.914;12.566;2023-05-07T06:06:11;16.70;99.90
37410;DHT22;23275;48.914;12.566;2023-05-07T06:08:37;16.80;99.90
37410;DHT22;23275;48.914;12.566;2023-05-07T06:11:02;16.80;99.90
37410;DHT22;23275;48.914;12.566;2023-05-07T06:13:28;16.90;99.90
37410;DHT22;23275;48.914;12.566;2023-05-07T06:15:53;16.80;99.90
37410;DHT22;23275;48.914;12.566;2023-05-07T06:18:19;16.90;99.90
37410;DHT22;23275;48.914;12.566;2023-05-07T06:20:44;17.00;99.90
37410;DHT22;23275;48.914;12.566;2023-05-07T06:23:10;17.20;99.90
37410;DHT22;23275;48.914;12.566;2023-05-07T06:25:35;17.40;99.90
37410;DHT22;23275;48.914;12.566;2023-05-07T06:28:01;17.60;99.90
37410;DHT22;23275;48.914;12.566;2023-05-07T06:30:26;17.90;99.90
37410;DHT22;23275;48.914;12.566;2023-05-07T06:32:52;17.90;99.90
37410;DHT22;23275;48.914;12.566;2023-05-07T06:35:17;18.00;99.90
37410;DHT22;23275;48.914;12.566;2023-05-07T06:37:43;18.20;99.90
37410;DHT22;23275;48.914;12.566;2023-05-07T06:40:08;18.40;99.90
37410;DHT22;23275;48.914;12.566;2023-05-07T06:42:35;18.60;99.90
37410;DHT22;23275;48.914;12.566;2023-05-07T06:45:00;18.70;99.90
37410;DHT22;23275;48.914;12.566;2023-05-07T06:47:26;18.60;99.90
37410;DHT22;23275;48.914;12.566;2023-05-07T06:49:51;18.80;99.90
37410;DHT22;23275;48.914;12.566;2023-05-07T06:52:17;18.90;99.90
37410;DHT22;23275;48.914;12.566;2023-05-07T06:54:42;19.00;99.90
37410;DHT22;23275;48.914;12.566;2023-05-07T06:57:08;19.20;99.90
37410;DHT22;23275;48.914;12.566;2023-05-07T06:59:33;19.30;99.90
37410;DHT22;23275;48.914;12.566;2023-05-07T07:01:58;19.40;99.90
37410;DHT22;23275;48.914;12.566;2023-05-07T07:04:24;19.30;99.90
37410;DHT22;23275;48.914;12.566;2023-05-07T07:06:51;19.30;99.90
37410;DHT22;23275;48.914;12.566;2023-05-07T07:09:17;19.50;99.90
37410;DHT22;23275;48.914;12.566;2023-05-07T07:11:42;19.70;99.90
37410;DHT22;23275;48.914;12.566;2023-05-07T07:14:07;19.90;99.90
37410;DHT22;23275;48.914;12.566;2023-05-07T07:16:33;20.00;99.90
37410;DHT22;23275;48.914;12.566;2023-05-07T07:18:59;20.30;99.90
37410;DHT22;23275;48.914;12.566;2023-05-07T07:21:24;20.50;99.90
37410;DHT22;23275;48.914;12.566;2023-05-07T07:23:50;20.80;99.90
37410;DHT22;23275;48.914;12.566;2023-05-07T07:26:16;21.00;99.90
37410;DHT22;23275;48.914;12.566;2023-05-07T07:28:42;21.00;99.90
37410;DHT22;23275;48.914;12.566;2023-05-07T07:31:09;21.10;99.90
37410;DHT22;23275;48.914;12.566;2023-05-07T07:33:34;21.30;99.90
37410;DHT22;23275;48.914;12.566;2023-05-07T07:36:00;21.60;99.90
37410;DHT22;23275;48.914;12.566;2023-05-07T07:38:25;21.90;99.90
37410;DHT22;23275;48.914;12.566;2023-05-07T07:40:50;22.20;99.90
37410;DHT22;23275;48.914;12.566;2023-05-07T07:43:16;22.50;99.90
37410;DHT22;23275;48.914;12.566;2023-05-07T07:45:41;22.90;99.90
37410;DHT22;23275;48.914;12.566;2023-05-07T07:48:07;23.10;99.90
37410;DHT22;23275;48.914;12.566;2023-05-07T07:50:32;23.10;99.90
37410;DHT22;23275;48.914;12.566;2023-05-07T07:52:58;22.70;99.90
37410;DHT22;23275;48.914;12.566;2023-05-07T07:55:23;22.70;99.90
37410;DHT22;23275;48.914;12.566;2023-05-07T07:57:49;22.90;99.90
37410;DHT22;23275;48.914;12.566;2023-05-07T08:00:15;23.10;99.90
37410;DHT22;23275;48.914;12.566;2023-05-07T08:02:41;23.30;99.90
37410;DHT22;23275;48.914;12.566;2023-05-07T08:05:07;23.00;99.90
37410;DHT22;23275;48.914;12.566;2023-05-07T08:07:32;22.70;99.90
37410;DHT22;23275;48.914;12.566;2023-05-07T08:09:58;22.70;99.90
37410;DHT22;23275;48.914;12.566;2023-05-07T08:12:23;22.90;99.90
37410;DHT22;23275;48.914;12.566;2023-05-07T08:14:49;23.10;99.90
37410;DHT22;23275;48.914;12.566;2023-05-07T08:17:14;23.20;99.90
37410;DHT22;23275;48.914;12.566;2023-05-07T08:19:41;23.40;99.90
37410;DHT22;23275;48.914;12.566;2023-05-07T08:22:06;23.80;99.90
37410;DHT22;23275;48.914;12.566;2023-05-07T08:24:32;23.80;99.90
37410;DHT22;23275;48.914;12.566;2023-05-07T08:26:57;23.50;99.90
37410;DHT22;23275;48.914;12.566;2023-05-07T08:29:23;23.00;99.90
37410;DHT22;23275;48.914;12.566;2023-05-07T08:31:48;22.40;99.90
37410;DHT22;23275;48.914;12.566;2023-05-07T08:34:14;22.20;99.90
37410;DHT22;23275;48.914;12.566;2023-05-07T08:36:39;22.20;99.90
37410;DHT22;23275;48.914;12.566;2023-05-07T08:39:07;22.20;99.90
37410;DHT22;23275;48.914;12.566;2023-05-07T08:41:32;22.50;99.90
37410;DHT22;23275;48.914;12.566;2023-05-07T08:43:58;22.80;99.90
37410;DHT22;23275;48.914;12.566;2023-05-07T08:46:25;23.20;99.90
37410;DHT22;23275;48.914;12.566;2023-05-07T08:48:51;23.20;99.90
37410;DHT22;23275;48.914;12.566;2023-05-07T08:51:17;23.30;99.90
37410;DHT22;23275;48.914;12.566;2023-05-07T08:53:43;23.30;99.90
37410;DHT22;23275;48.914;12.566;2023-05-07T08:56:09;23.30;99.90
37410;DHT22;23275;48.914;12.566;2023-05-07T08:58:35;23.50;99.90
37410;DHT22;23275;48.914;12.566;2023-05-07T09:01:01;23.80;99.90
37410;DHT22;23275;48.914;12.566;2023-05-07T09:03:28;24.90;99.90
37410;DHT22;23275;48.914;12.566;2023-05-07T09:05:53;25.60;99.90
37410;DHT22;23275;48.914;12.566;2023-05-07T09:08:19;26.80;99.90
37410;DHT22;23275;48.914;12.566;2023-05-07T09:10:49;29.00;98.20
37410;DHT22;23275;48.914;12.566;2023-05-07T09:13:15;31.80;92.30
37410;DHT22;23275;48.914;12.566;2023-05-07T09:15:40;33.60;80.40
37410;DHT22;23275;48.914;12.566;2023-05-07T09:18:06;34.40;72.60
37410;DHT22;23275;48.914;12.566;2023-05-07T09:20:31;34.30;65.20
37410;DHT22;23275;48.914;12.566;2023-05-07T09:22:57;32.90;67.60
37410;DHT22;23275;48.914;12.566;2023-05-07T09:25:29;31.20;73.00
37410;DHT22;23275;48.914;12.566;2023-05-07T09:27:55;29.90;70.70
37410;DHT22;23275;48.914;12.566;2023-05-07T09:30:20;28.70;76.40
37410;DHT22;23275;48.914;12.566;2023-05-07T09:32:46;27.80;82.40
37410;DHT22;23275;48.914;12.566;2023-05-07T09:35:17;27.50;85.40
37410;DHT22;23275;48.914;12.566;2023-05-07T09:37:43;27.30;80.80
37410;DHT22;23275;48.914;12.566;2023-05-07T09:40:19;26.60;78.40
37410;DHT22;23275;48.914;12.566;2023-05-07T09:42:45;26.00;87.80
37410;DHT22;23275;48.914;12.566;2023-05-07T09:45:12;25.80;85.50
37410;DHT22;23275;48.914;12.566;2023-05-07T09:47:38;25.80;85.50
37410;DHT22;23275;48.914;12.566;2023-05-07T09:50:04;25.70;87.20
37410;DHT22;23275;48.914;12.566;2023-05-07T09:52:30;25.60;90.00
37410;DHT22;23275;48.914;12.566;2023-05-07T09:54:58;25.70;89.10
37410;DHT22;23275;48.914;12.566;2023-05-07T09:57:25;25.60;87.40
37410;DHT22;23275;48.914;12.566;2023-05-07T09:59:50;25.50;85.40
37410;DHT22;23275;48.914;12.566;2023-05-07T10:02:17;25.10;87.10
37410;DHT22;23275;48.914;12.566;2023-05-07T10:04:44;25.10;90.60
37410;DHT22;23275;48.914;12.566;2023-05-07T10:07:10;25.60;89.50
37410;DHT22;23275;48.914;12.566;2023-05-07T10:09:36;27.40;88.80
37410;DHT22;23275;48.914;12.566;2023-05-07T10:12:04;30.00;83.10
37410;DHT22;23275;48.914;12.566;2023-05-07T10:14:30;32.70;78.10
37410;DHT22;23275;48.914;12.566;2023-05-07T10:16:55;34.20;67.50
37410;DHT22;23275;48.914;12.566;2023-05-07T10:19:21;34.60;66.60
37410;DHT22;23275;48.914;12.566;2023-05-07T10:21:58;34.90;66.20
37410;DHT22;23275;48.914;12.566;2023-05-07T10:24:25;35.10;65.30
37410;DHT22;23275;48.914;12.566;2023-05-07T10:26:52;34.40;64.30
37410;DHT22;23275;48.914;12.566;2023-05-07T10:29:25;33.00;66.10
37410;DHT22;23275;48.914;12.566;2023-05-07T10:31:57;32.50;67.50
37410;DHT22;23275;48.914;12.566;2023-05-07T10:34:29;33.30;66.60
37410;DHT22;23275;48.914;12.566;2023-05-07T10:36:57;33.30;65.00
37410;DHT22;23275;48.914;12.566;2023-05-07T10:39:23;32.50;66.50
37410;DHT22;23275;48.914;12.566;2023-05-07T10:41:49;31.90;66.10
37410;DHT22;23275;48.914;12.566;2023-05-07T10:44:27;31.60;68.40
37410;DHT22;23275;48.914;12.566;2023-05-07T10:52:17;34.10;64.30
37410;DHT22;23275;48.914;12.566;2023-05-07T10:54:43;34.90;64.70
37410;DHT22;23275;48.914;12.566;2023-05-07T10:59:54;34.50;59.50
37410;DHT22;23275;48.914;12.566;2023-05-07T11:02:19;34.30;61.30
37410;DHT22;23275;48.914;12.566;2023-05-07T11:04:45;35.00;58.00
37410;DHT22;23275;48.914;12.566;2023-05-07T11:12:16;34.30;58.90
37410;DHT22;23275;48.914;12.566;2023-05-07T11:14:42;33.80;61.20
37410;DHT22;23275;48.914;12.566;2023-05-07T11:17:09;32.60;61.60
37410;DHT22;23275;48.914;12.566;2023-05-07T11:19:50;31.20;66.00
37410;DHT22;23275;48.914;12.566;2023-05-07T11:24:56;28.70;73.30
37410;DHT22;23275;48.914;12.566;2023-05-07T11:27:25;27.60;72.60
37410;DHT22;23275;48.914;12.566;2023-05-07T11:29:51;26.70;73.50
37410;DHT22;23275;48.914;12.566;2023-05-07T11:32:22;26.40;77.10
37410;DHT22;23275;48.914;12.566;2023-05-07T11:34:47;26.00;78.30
37410;DHT22;23275;48.914;12.566;2023-05-07T11:37:17;25.70;77.70
37410;DHT22;23275;48.914;12.566;2023-05-07T11:39:42;25.50;83.00
37410;DHT22;23275;48.914;12.566;2023-05-07T11:42:24;25.40;81.40
37410;DHT22;23275;48.914;12.566;2023-05-07T11:44:50;25.30;83.60
37410;DHT22;23275;48.914;12.566;2023-05-07T11:47:19;25.20;86.20
37410;DHT22;23275;48.914;12.566;2023-05-07T11:49:47;25.30;84.80
37410;DHT22;23275;48.914;12.566;2023-05-07T11:52:13;25.40;83.20
37410;DHT22;23275;48.914;12.566;2023-05-07T11:54:39;25.10;80.20
37410;DHT22;23275;48.914;12.566;2023-05-07T11:57:04;24.90;84.80
37410;DHT22;23275;48.914;12.566;2023-05-07T11:59:37;24.60;86.70
37410;DHT22;23275;48.914;12.566;2023-05-07T12:02:03;24.30;83.50
37410;DHT22;23275;48.914;12.566;2023-05-07T12:04:29;24.00;86.20
37410;DHT22;23275;48.914;12.566;2023-05-07T12:06:55;24.00;88.90
37410;DHT22;23275;48.914;12.566;2023-05-07T12:09:23;24.00;85.30
37410;DHT22;23275;48.914;12.566;2023-05-07T12:11:49;24.10;88.80
37410;DHT22;23275;48.914;12.566;2023-05-07T12:14:14;24.30;88.40
37410;DHT22;23275;48.914;12.566;2023-05-07T12:16:41;24.50;85.40
37410;DHT22;23275;48.914;12.566;2023-05-07T12:19:07;24.50;87.60
37410;DHT22;23275;48.914;12.566;2023-05-07T12:21:34;24.40;84.80
37410;DHT22;23275;48.914;12.566;2023-05-07T12:24:01;24.50;89.50
37410;DHT22;23275;48.914;12.566;2023-05-07T12:26:26;24.70;85.80
37410;DHT22;23275;48.914;12.566;2023-05-07T12:28:52;24.60;83.50
37410;DHT22;23275;48.914;12.566;2023-05-07T12:31:17;24.60;87.50
37410;DHT22;23275;48.914;12.566;2023-05-07T12:33:43;24.60;86.00
37410;DHT22;23275;48.914;12.566;2023-05-07T12:36:08;24.40;89.20
37410;DHT22;23275;48.914;12.566;2023-05-07T12:38:35;24.30;87.00
37410;DHT22;23275;48.914;12.566;2023-05-07T12:41:00;24.20;85.70
37410;DHT22;23275;48.914;12.566;2023-05-07T12:43:26;24.00;84.40
37410;DHT22;23275;48.914;12.566;2023-05-07T12:45:56;24.00;88.30
37410;DHT22;23275;48.914;12.566;2023-05-07T12:48:22;24.00;87.40
37410;DHT22;23275;48.914;12.566;2023-05-07T12:50:51;23.90;86.00
37410;DHT22;23275;48.914;12.566;2023-05-07T12:53:19;23.80;84.30
37410;DHT22;23275;48.914;12.566;2023-05-07T12:55:46;23.70;86.50
37410;DHT22;23275;48.914;12.566;2023-05-07T12:58:16;23.60;88.30
37410;DHT22;23275;48.914;12.566;2023-05-07T13:00:41;23.60;86.90
37410;DHT22;23275;48.914;12.566;2023-05-07T13:03:08;23.60;83.50
37410;DHT22;23275;48.914;12.566;2023-05-07T13:05:34;23.60;87.00
37410;DHT22;23275;48.914;12.566;2023-05-07T13:08:00;23.60;84.70
37410;DHT22;23275;48.914;12.566;2023-05-07T13:10:26;23.70;88.30
37410;DHT22;23275;48.914;12.566;2023-05-07T13:12:52;23.60;85.50
37410;DHT22;23275;48.914;12.566;2023-05-07T13:15:18;23.50;84.40
37410;DHT22;23275;48.914;12.566;2023-05-07T13:17:43;23.50;86.00
37410;DHT22;23275;48.914;12.566;2023-05-07T13:20:09;23.50;86.00
37410;DHT22;23275;48.914;12.566;2023-05-07T13:22:35;23.40;83.70
37410;DHT22;23275;48.914;12.566;2023-05-07T13:25:01;23.30;82.80
37410;DHT22;23275;48.914;12.566;2023-05-07T13:27:26;23.30;82.40
37410;DHT22;23275;48.914;12.566;2023-05-07T13:29:52;23.30;85.70
37410;DHT22;23275;48.914;12.566;2023-05-07T13:32:17;23.50;84.00
37410;DHT22;23275;48.914;12.566;2023-05-07T13:34:43;23.50;85.10
37410;DHT22;23275;48.914;12.566;2023-05-07T13:37:08;23.30;79.90
37410;DHT22;23275;48.914;12.566;2023-05-07T13:39:34;23.30;81.20
37410;DHT22;23275;48.914;12.566;2023-05-07T13:41:59;23.10;86.30
37410;DHT22;23275;48.914;12.566;2023-05-07T13:44:26;23.10;86.30
37410;DHT22;23275;48.914;12.566;2023-05-07T13:46:51;23.10;88.30
37410;DHT22;23275;48.914;12.566;2023-05-07T13:49:17;23.00;87.60
37410;DHT22;23275;48.914;12.566;2023-05-07T13:51:42;22.90;86.50
37410;DHT22;23275;48.914;12.566;2023-05-07T13:54:08;22.80;85.90
37410;DHT22;23275;48.914;12.566;2023-05-07T13:56:33;22.80;87.50
37410;DHT22;23275;48.914;12.566;2023-05-07T13:58:59;22.90;91.30
37410;DHT22;23275;48.914;12.566;2023-05-07T14:01:24;23.00;90.70
37410;DHT22;23275;48.914;12.566;2023-05-07T14:03:50;23.00;90.70
37410;DHT22;23275;48.914;12.566;2023-05-07T14:06:15;22.90;85.80
37410;DHT22;23275;48.914;12.566;2023-05-07T14:08:41;22.70;89.80
37410;DHT22;23275;48.914;12.566;2023-05-07T14:11:06;22.60;89.60
37410;DHT22;23275;48.914;12.566;2023-05-07T14:13:32;22.60;90.70
37410;DHT22;23275;48.914;12.566;2023-05-07T14:15:57;22.60;90.60
37410;DHT22;23275;48.914;12.566;2023-05-07T14:18:23;22.60;90.10
37410;DHT22;23275;48.914;12.566;2023-05-07T14:20:48;22.40;90.60
37410;DHT22;23275;48.914;12.566;2023-05-07T14:23:14;22.50;91.10
37410;DHT22;23275;48.914;12.566;2023-05-07T14:25:40;22.50;91.30
37410;DHT22;23275;48.914;12.566;2023-05-07T14:28:06;22.50;90.50
37410;DHT22;23275;48.914;12.566;2023-05-07T14:30:31;22.30;90.00
37410;DHT22;23275;48.914;12.566;2023-05-07T14:32:57;22.20;90.40
37410;DHT22;23275;48.914;12.566;2023-05-07T14:35:22;22.10;91.00
37410;DHT22;23275;48.914;12.566;2023-05-07T14:37:48;21.90;89.70
37410;DHT22;23275;48.914;12.566;2023-05-07T14:40:13;21.80;91.10
37410;DHT22;23275;48.914;12.566;2023-05-07T14:42:40;21.90;90.50
37410;DHT22;23275;48.914;12.566;2023-05-07T14:45:05;21.90;92.20
37410;DHT22;23275;48.914;12.566;2023-05-07T14:47:31;21.90;89.80
37410;DHT22;23275;48.914;12.566;2023-05-07T14:49:56;21.90;90.10
37410;DHT22;23275;48.914;12.566;2023-05-07T14:52:23;21.70;90.50
37410;DHT22;23275;48.914;12.566;2023-05-07T14:54:49;21.80;92.00
37410;DHT22;23275;48.914;12.566;2023-05-07T14:57:14;21.80;90.80
37410;DHT22;23275;48.914;12.566;2023-05-07T14:59:41;22.00;90.30
37410;DHT22;23275;48.914;12.566;2023-05-07T15:02:07;22.10;90.00
37410;DHT22;23275;48.914;12.566;2023-05-07T15:04:33;22.10;90.80
37410;DHT22;23275;48.914;12.566;2023-05-07T15:06:58;22.20;91.00
37410;DHT22;23275;48.914;12.566;2023-05-07T15:09:24;22.10;90.20
37410;DHT22;23275;48.914;12.566;2023-05-07T15:11:49;22.00;90.50
37410;DHT22;23275;48.914;12.566;2023-05-07T15:14:15;21.80;91.20
37410;DHT22;23275;48.914;12.566;2023-05-07T15:16:40;21.70;90.60
37410;DHT22;23275;48.914;12.566;2023-05-07T15:19:06;21.50;91.20
37410;DHT22;23275;48.914;12.566;2023-05-07T15:21:31;21.30;92.20
37410;DHT22;23275;48.914;12.566;2023-05-07T15:23:59;21.10;93.70
37410;DHT22;23275;48.914;12.566;2023-05-07T15:26:26;21.00;92.50